الصفحة الرئيسية
METAR-TAF:

METAR-TAF

مطار :

مطار توزر نفطة الدولي

توزر, تونس

دائرة عرض: 33-55N, خط طول: 008-06E, ارتفاع: 87 متر

مراقبة الطقس الحالي

تاريخ ووقت الإصدار 1ساعة و 7 دقيقة قبل الساعة 18:00UTC
ريح 1 عقدةمن اتجاهات متغيرة تتزايد حتى 12 عقدة
درجة الحرارة 38°درجة مئوية
الرطوبة 20%
ضغط 1011 hPa
الرؤية 10 كم أو أكثر
غيوم متفرقة على ارتفاع 2600 قدم, مزن ركامية عمودية.

METAR: DTTZ 141800Z VRB01G12KT 9999 SCT026TCU 38/11 Q1011 NOSIG

زمن: 20:07 (19:07 UTC)

توقعات

تاريخ ووقت الإصدار 2ساعات و 7 دقيقة قبل الساعة 17:00UTC
التوقعات صالحة من14 الساعة 18 UTC إلى 15 الساعة 18 UTC
ريح 6 عقدة من الغرب/الجنوب الغربي
الرؤية 10 كم أو أكثر
غيوم متفرقة على ارتفاع 2600 قدم
نظرية الاحتمالات 30%
من 14 الساعة 18 UTC إلى 14 الساعة 21 UTC
غيوم متفرقة على ارتفاع 2600 قدم, مزن ركامية عمودية.
عاصفة رعدية, مطر خفيف
أصبح
من 15 الساعة 00 UTC إلى 15 الساعة 02 UTC
ريح 10 عقدة من الشرق
مؤقت
من 15 الساعة 13 UTC إلى 15 الساعة 18 UTC
ريح 4 عقدة من الجنوب/الجنوب الشرقي

TAF: DTTZ 141700Z 1418/1518 25006KT 9999 SCT026 PROB30 1418/1421 -TSRA SCT026TCU BECMG 1500/1502 09010KT TEMPO 1513/1518 15004KT

أرصاد الطقس والتوقعات من أكثر من 4000 مطار (تقارير الطقس للمطار METAR والتنبؤ بالطقس بالمطارTAF).

المحطات المتاحة هي النقط الصفراء والحمراء على الخريطة.

حرك المؤشر فوق النقطة لمعرفة اسم المحطة.

ثم انقر لمعرفة أرصاد وتوقعات الطقس.

لتغيير الخارطة: اضغط على الأزرار الخضراء مع رمز الصليب الأسود للتكبير. على الزر الأخضر مع شرطة للتصغير، أو على الأسهم الخضراء للخرائط المجاورة.


METAR-TAF: